Time;durP1;ratioP1;P1;durP2;ratioP2;P2;SDS_P1;SDS_P2;PMS_P1;PMS_P2;Temp;Humidity;BMP_temperature;BMP_pressure;BME280_temperature;BME280_humidity;BME280_pressure;Samples;Min_cycle;Max_cycle;Signal;HPM_P1;HPM_P2
2023/08/23 09:48:45;;;;;;;2.60;1.30;;;;;;;34.41;30.22;100792.58;106614;1253;65965;-89
2023/08/23 09:51:36;;;;;;;3.10;1.30;;;;;;;34.39;30.61;100789.86;106782;1253;61265;-86
2023/08/23 09:54:34;;;;;;;3.40;1.50;;;;;;;34.27;30.18;100789.63;106649;1253;65214;-90
2023/08/23 09:57:38;;;;;;;3.40;1.40;;;;;;;34.32;30.56;100786.69;106625;1254;62714;-87
2023/08/23 10:00:27;;;;;;;3.20;1.50;;;;;;;34.43;30.29;100782.83;106592;1257;61189;-86
2023/08/23 10:03:16;;;;;;;3.40;1.60;;;;;;;34.46;30.45;100781.77;106658;1253;66633;-86
2023/08/23 10:06:05;;;;;;;6.00;1.60;;;;;;;34.47;30.68;100782.33;106422;1254;61713;-86
2023/08/23 10:08:54;;;;;;;4.30;1.70;;;;;;;34.50;29.78;100779.59;106293;1253;65173;-90
2023/08/23 10:11:43;;;;;;;3.50;1.80;;;;;;;34.69;29.98;100776.31;106323;1254;61448;-85
2023/08/23 10:14:44;;;;;;;3.20;1.40;;;;;;;34.78;30.14;100776.77;106755;1253;61278;-86
2023/08/23 10:17:33;;;;;;;4.20;1.90;;;;;;;34.67;29.92;100773.66;106547;1253;68172;-87
2023/08/23 10:20:24;;;;;;;3.50;1.70;;;;;;;34.52;30.45;100775.02;106631;1257;62057;-90
2023/08/23 10:23:16;;;;;;;2.30;1.20;;;;;;;34.60;30.46;100772.92;106421;1254;65982;-85
2023/08/23 10:26:05;;;;;;;4.90;1.20;;;;;;;34.62;31.00;100767.93;106377;1259;61165;-86
2023/08/23 10:28:53;;;;;;;1.90;1.30;;;;;;;34.64;30.99;100765.54;106565;1253;61307;-90
2023/08/23 10:31:51;;;;;;;4.60;1.80;;;;;;;34.68;30.63;100765.88;106510;1257;67700;-92
2023/08/23 10:34:42;;;;;;;3.50;1.50;;;;;;;34.75;30.54;100763.04;106294;1259;61137;-89
2023/08/23 10:37:32;;;;;;;4.20;2.20;;;;;;;34.92;30.32;100761.36;106790;1255;65121;-89
2023/08/23 10:40:21;;;;;;;2.80;1.70;;;;;;;35.02;29.74;100759.02;106570;1257;60973;-89
2023/08/23 10:43:15;;;;;;;3.80;1.80;;;;;;;35.14;29.78;100759.18;106528;1259;61209;-86
2023/08/23 10:46:06;;;;;;;3.60;2.10;;;;;;;35.06;30.11;100762.35;106474;1256;68338;-86
2023/08/23 10:48:55;;;;;;;2.50;1.90;;;;;;;35.00;29.73;100751.45;106629;1253;61403;-90
2023/08/23 10:51:43;;;;;;;3.80;2.00;;;;;;;35.14;29.61;100754.15;106434;1253;65833;-91
2023/08/23 10:54:35;;;;;;;2.60;1.80;;;;;;;35.34;29.20;100755.96;106307;1253;61299;-87
2023/08/23 10:57:24;;;;;;;2.90;2.00;;;;;;;35.51;29.21;100758.04;106410;1253;61297;-90
2023/08/23 11:00:13;;;;;;;2.60;1.60;;;;;;;35.41;29.10;100755.54;106327;1258;67772;-88
2023/08/23 11:03:04;;;;;;;4.40;1.60;;;;;;;35.40;28.27;100749.48;106467;1253;62588;-89
2023/08/23 11:05:53;;;;;;;2.60;1.30;;;;;;;35.43;28.67;100746.48;106356;1254;66342;-89
2023/08/23 11:08:43;;;;;;;2.50;1.40;;;;;;;35.49;29.10;100744.13;106471;1257;61288;-86
2023/08/23 11:11:32;;;;;;;5.70;1.40;;;;;;;35.54;29.35;100740.91;106418;1259;61290;-86
2023/08/23 11:14:20;;;;;;;4.20;1.50;;;;;;;35.60;28.88;100735.85;106433;1254;66829;-87
2023/08/23 11:17:10;;;;;;;4.10;1.70;;;;;;;35.59;29.12;100731.39;106437;1254;62043;-89
2023/08/23 11:20:00;;;;;;;1.20;1.10;;;;;;;35.67;29.47;100734.93;106434;1254;67367;-87
2023/08/23 11:22:48;;;;;;;5.00;1.70;;;;;;;35.75;29.51;100733.08;106331;1259;61412;-88
2023/08/23 11:25:37;;;;;;;2.50;1.20;;;;;;;35.75;29.21;100731.23;106394;1252;61278;-87
2023/08/23 11:28:26;;;;;;;3.20;1.50;;;;;;;35.82;29.56;100728.77;106491;1257;68645;-89
2023/08/23 11:31:15;;;;;;;3.80;1.50;;;;;;;35.91;28.63;100726.88;106555;1255;62049;-90
2023/08/23 11:34:06;;;;;;;3.10;1.40;;;;;;;36.09;28.52;100722.59;106673;1255;62708;-88
2023/08/23 11:36:54;;;;;;;2.60;1.40;;;;;;;36.04;28.48;100718.42;106617;1257;61387;-86
2023/08/23 11:39:43;;;;;;;4.70;1.50;;;;;;;35.90;28.32;100722.77;106583;1256;61390;-89
2023/08/23 11:42:32;;;;;;;4.60;1.40;;;;;;;35.75;28.48;100723.02;106666;1257;68178;-89
2023/08/23 11:45:21;;;;;;;2.30;1.10;;;;;;;35.50;28.38;100719.50;106223;1259;62367;-87
2023/08/23 11:48:10;;;;;;;3.90;1.60;;;;;;;35.37;28.50;100719.85;106155;1260;64876;-88
2023/08/23 11:51:01;;;;;;;4.40;1.60;;;;;;;35.33;29.01;100717.19;106404;1253;61157;-89
2023/08/23 11:53:54;;;;;;;2.40;1.20;;;;;;;35.37;28.98;100715.38;106438;1257;61163;-89
2023/08/23 11:56:44;;;;;;;4.40;2.30;;;;;;;35.47;28.60;100712.74;106346;1256;66647;-90
2023/08/23 11:59:33;;;;;;;2.00;1.40;;;;;;;35.57;28.50;100717.80;106639;1256;61260;-86
2023/08/23 12:02:22;;;;;;;4.40;1.90;;;;;;;35.91;28.35;100716.98;106406;1260;65366;-89
2023/08/23 12:05:13;;;;;;;1.70;1.40;;;;;;;36.35;27.37;100715.51;106375;1257;61282;-88
2023/08/23 12:08:03;;;;;;;5.10;2.50;;;;;;;36.70;27.09;100706.83;106409;1256;61253;-90
2023/08/23 12:10:53;;;;;;;5.70;1.80;;;;;;;37.01;26.92;100705.24;106347;1257;67009;-88
2023/08/23 12:13:41;;;;;;;4.90;2.90;;;;;;;37.19;26.44;100701.58;106332;1261;62354;-89
2023/08/23 12:16:31;;;;;;;6.20;2.40;;;;;;;37.20;26.55;100698.61;106372;1254;64907;-91
2023/08/23 12:19:20;;;;;;;4.30;1.60;;;;;;;37.40;26.08;100695.81;106379;1254;61271;-93
2023/08/23 12:22:19;;;;;;;4.00;1.50;;;;;;;37.61;25.70;100696.73;106514;1257;61208;-89
2023/08/23 12:25:07;;;;;;;3.10;1.50;;;;;;;37.82;25.29;100697.04;106498;1256;64444;-89
2023/08/23 12:27:56;;;;;;;5.70;3.10;;;;;;;37.88;25.57;100695.77;106398;1254;61930;-86
2023/08/23 12:30:45;;;;;;;3.30;1.90;;;;;;;37.89;25.74;100694.35;106424;1260;62565;-88
2023/08/23 12:33:34;;;;;;;3.50;1.50;;;;;;;37.91;25.17;100692.01;106317;1257;61203;-87
2023/08/23 12:36:24;;;;;;;7.30;3.60;;;;;;;37.49;24.82;100694.34;106436;1259;61232;-87
2023/08/23 12:39:16;;;;;;;12.40;4.80;;;;;;;36.68;25.72;100688.81;106429;1254;67424;-90
2023/08/23 12:42:05;;;;;;;4.90;2.50;;;;;;;36.00;26.70;100689.11;106372;1253;62524;-89
2023/08/23 12:44:53;;;;;;;5.70;2.00;;;;;;;35.76;27.65;100693.27;106318;1256;63723;-86
2023/08/23 12:47:42;;;;;;;3.50;1.80;;;;;;;35.33;27.99;100688.94;106426;1254;61108;-92
2023/08/23 12:50:31;;;;;;;3.50;1.80;;;;;;;35.08;28.66;100688.16;106444;1254;61282;-88
2023/08/23 12:53:20;;;;;;;1.90;1.30;;;;;;;34.94;28.70;100682.80;106431;1254;66133;-89
2023/08/23 12:56:09;;;;;;;1.70;1.40;;;;;;;35.08;28.42;100687.44;106394;1253;61265;-86
2023/08/23 12:58:57;;;;;;;3.00;1.70;;;;;;;35.42;28.84;100691.31;106515;1256;66267;-86
2023/08/23 13:01:46;;;;;;;4.20;1.60;;;;;;;35.59;27.95;100692.33;106486;1256;61282;-92
2023/08/23 13:04:35;;;;;;;4.00;1.90;;;;;;;35.93;27.48;100692.14;106507;1257;61434;-88
2023/08/23 13:07:24;;;;;;;2.80;1.60;;;;;;;36.38;26.87;100692.27;106403;1257;68282;-88
2023/08/23 13:10:12;;;;;;;2.40;1.40;;;;;;;36.73;26.51;100691.21;106576;1256;61255;-90
2023/08/23 13:13:01;;;;;;;5.50;2.20;;;;;;;36.95;26.03;100689.85;106339;1257;66164;-88
2023/08/23 13:15:50;;;;;;;3.90;1.30;;;;;;;37.22;26.09;100679.15;106550;1255;61273;-88
2023/08/23 13:18:39;;;;;;;4.30;1.40;;;;;;;37.41;25.86;100677.96;106521;1257;61142;-88
2023/08/23 13:21:27;;;;;;;5.00;1.80;;;;;;;37.66;25.47;100679.61;106396;1254;67386;-90
2023/08/23 13:24:20;;;;;;;2.20;1.40;;;;;;;37.62;24.95;100680.17;106449;1253;61359;-91
2023/08/23 13:27:09;;;;;;;3.70;1.80;;;;;;;37.95;25.49;100681.27;106454;1255;64650;-91
2023/08/23 13:29:58;;;;;;;2.50;1.40;;;;;;;38.36;25.52;100678.60;106561;1256;61381;-89
2023/08/23 13:32:47;;;;;;;3.00;1.40;;;;;;;38.73;24.36;100672.02;106599;1254;61170;-89
2023/08/23 13:35:36;;;;;;;6.80;1.70;;;;;;;39.03;23.40;100674.35;106492;1254;65131;-89
2023/08/23 13:38:24;;;;;;;4.90;1.50;;;;;;;39.19;22.37;100674.59;106588;1254;61161;-88
2023/08/23 13:41:13;;;;;;;7.40;1.70;;;;;;;39.31;22.05;100676.27;106539;1254;65203;-92
2023/08/23 13:44:04;;;;;;;3.30;1.40;;;;;;;39.58;21.47;100669.33;106552;1254;61396;-89
2023/08/23 13:46:52;;;;;;;5.20;1.50;;;;;;;39.72;21.22;100666.31;106569;1254;61123;-89
2023/08/23 13:49:41;;;;;;;11.10;2.00;;;;;;;39.78;21.13;100671.31;106694;1254;67972;-88
2023/08/23 13:52:30;;;;;;;2.10;1.40;;;;;;;39.90;20.87;100669.15;106669;1255;61855;-91
2023/08/23 13:55:18;;;;;;;2.70;1.60;;;;;;;39.89;21.21;100666.41;106447;1257;62448;-89
2023/08/23 13:58:07;;;;;;;3.90;1.70;;;;;;;40.13;20.93;100663.84;106299;1256;61259;-88
2023/08/23 14:00:57;;;;;;;2.70;1.20;;;;;;;40.61;20.37;100663.41;106384;1257;61244;-92
2023/08/23 14:03:46;;;;;;;3.80;1.50;;;;;;;40.80;20.06;100658.31;106401;1253;67398;-89
2023/08/23 14:06:35;;;;;;;3.40;1.50;;;;;;;41.03;19.35;100657.90;106364;1255;62209;-91
2023/08/23 14:09:25;;;;;;;7.70;1.90;;;;;;;40.77;19.38;100658.05;106297;1254;63828;-91
2023/08/23 14:12:13;;;;;;;8.10;1.50;;;;;;;40.38;20.02;100655.81;106387;1254;61240;-92
2023/08/23 14:15:03;;;;;;;4.40;1.70;;;;;;;40.30;20.10;100658.16;106393;1254;61387;-90
2023/08/23 14:17:52;;;;;;;4.10;1.30;;;;;;;40.33;20.20;100655.23;106173;1254;67273;-89
2023/08/23 14:20:41;;;;;;;1.70;1.10;;;;;;;40.27;20.03;100653.95;106530;1257;61100;-90
2023/08/23 14:23:30;;;;;;;2.40;1.60;;;;;;;40.03;20.37;100657.36;106493;1257;65158;-86
2023/08/23 14:26:19;;;;;;;2.80;1.60;;;;;;;39.26;21.02;100661.70;106432;1257;61262;-86
2023/08/23 14:29:08;;;;;;;4.00;1.40;;;;;;;38.25;22.15;100658.55;106482;1257;61324;-86
2023/08/23 14:31:57;;;;;;;2.50;1.40;;;;;;;37.66;22.93;100662.59;106351;1254;64475;-88
2023/08/23 14:34:46;;;;;;;2.20;1.50;;;;;;;36.98;23.48;100668.87;106415;1254;61211;-87
2023/08/23 14:37:34;;;;;;;5.50;1.80;;;;;;;36.47;23.97;100669.41;106369;1257;65039;-89
2023/08/23 14:40:23;;;;;;;4.50;1.80;;;;;;;36.06;24.58;100669.52;106487;1254;61327;-86
2023/08/23 14:43:12;;;;;;;2.10;1.60;;;;;;;35.48;25.58;100666.30;106573;1257;61279;-85
2023/08/23 14:46:00;;;;;;;3.80;1.80;;;;;;;35.05;26.19;100664.64;106511;1256;68211;-86
2023/08/23 14:48:49;;;;;;;5.00;1.70;;;;;;;34.74;26.74;100660.98;106456;1260;61224;-91
2023/08/23 14:51:38;;;;;;;4.90;1.70;;;;;;;34.44;27.03;100661.73;106293;1254;65778;-90
2023/08/23 14:54:27;;;;;;;1.40;1.30;;;;;;;34.46;27.47;100657.11;106384;1254;61234;-88
2023/08/23 14:57:16;;;;;;;3.60;1.90;;;;;;;34.35;27.97;100653.81;106320;1257;61173;-84
2023/08/23 15:00:10;;;;;;;3.40;1.90;;;;;;;34.19;27.94;100653.59;106351;1256;68024;-87
2023/08/23 15:02:59;;;;;;;3.00;1.70;;;;;;;34.19;27.60;100648.07;106501;1257;61287;-86
2023/08/23 15:05:52;;;;;;;2.00;1.30;;;;;;;34.19;27.54;100649.55;106352;1254;64896;-87
2023/08/23 15:08:41;;;;;;;1.70;1.60;;;;;;;34.23;27.70;100647.17;106437;1254;61256;-88
2023/08/23 15:11:29;;;;;;;2.60;1.50;;;;;;;34.33;27.82;100647.93;106419;1254;61240;-88
2023/08/23 15:14:18;;;;;;;8.80;1.70;;;;;;;34.34;27.81;100651.73;106326;1254;66626;-90
2023/08/23 15:17:07;;;;;;;4.60;1.70;;;;;;;34.17;27.86;100649.25;106338;1257;61217;-88
2023/08/23 15:19:56;;;;;;;5.40;1.70;;;;;;;34.12;27.61;100651.95;106482;1254;66182;-89
2023/08/23 15:22:44;;;;;;;3.20;1.60;;;;;;;34.06;27.80;100653.60;106469;1257;61259;-89
2023/08/23 15:25:33;;;;;;;1.70;1.50;;;;;;;33.64;28.79;100652.63;106333;1252;61109;-89
2023/08/23 15:28:22;;;;;;;3.70;1.90;;;;;;;33.61;29.03;100653.73;106466;1257;69418;-88
2023/08/23 15:31:10;;;;;;;5.80;2.00;;;;;;;33.28;29.74;100653.98;106650;1257;61267;-89
2023/08/23 15:33:59;;;;;;;2.70;1.70;;;;;;;33.12;30.57;100652.96;106503;1254;65871;-87
2023/08/23 15:36:48;;;;;;;2.70;1.70;;;;;;;33.13;30.38;100652.70;106514;1251;61305;-89
2023/08/23 15:39:36;;;;;;;6.80;1.80;;;;;;;32.90;30.45;100660.64;106450;1254;61285;-89
2023/08/23 15:42:25;;;;;;;3.70;1.50;;;;;;;32.82;30.64;100658.73;106309;1254;65771;-88
2023/08/23 15:45:16;;;;;;;2.30;1.70;;;;;;;32.73;31.00;100656.13;106398;1254;61850;-88
2023/08/23 15:48:06;;;;;;;5.80;1.90;;;;;;;32.68;30.94;100658.47;106439;1254;62477;-89
2023/08/23 15:50:54;;;;;;;4.80;1.80;;;;;;;32.61;30.70;100657.52;106510;1254;61241;-88
2023/08/23 15:53:44;;;;;;;3.00;1.90;;;;;;;32.58;30.72;100657.00;106533;1257;61183;-86
2023/08/23 15:56:33;;;;;;;3.30;1.70;;;;;;;32.71;31.06;100656.81;106441;1253;68093;-89
2023/08/23 15:59:22;;;;;;;2.70;1.60;;;;;;;32.83;31.19;100653.39;106586;1251;61180;-89
2023/08/23 16:02:10;;;;;;;3.40;2.00;;;;;;;32.77;31.70;100654.13;106394;1254;64806;-88
2023/08/23 16:04:59;;;;;;;5.00;2.30;;;;;;;32.60;31.65;100651.78;106261;1254;61337;-89
2023/08/23 16:07:48;;;;;;;4.30;1.70;;;;;;;32.31;32.28;100651.44;106401;1256;61241;-86
2023/08/23 16:10:40;;;;;;;3.10;1.80;;;;;;;32.10;33.39;100652.76;106482;1251;65025;-88
2023/08/23 16:13:29;;;;;;;3.90;1.80;;;;;;;32.04;33.93;100651.05;106614;1251;61352;-86
2023/08/23 16:16:18;;;;;;;4.70;1.90;;;;;;;32.00;34.62;100648.68;106607;1257;65720;-88
2023/08/23 16:19:07;;;;;;;7.60;2.00;;;;;;;31.96;34.90;100647.34;106658;1251;62419;-88
2023/08/23 16:21:56;;;;;;;3.60;1.70;;;;;;;31.67;35.58;100655.23;106562;1257;61118;-88
2023/08/23 16:24:44;;;;;;;2.60;1.80;;;;;;;31.62;36.15;100655.05;106565;1255;68352;-87
2023/08/23 16:27:33;;;;;;;3.40;1.80;;;;;;;31.36;36.95;100655.92;107501;1253;61179;-88
2023/08/23 16:30:22;;;;;;;10.50;2.40;;;;;;;31.14;37.73;100658.84;106637;1251;65826;-88
2023/08/23 16:33:10;;;;;;;12.30;2.60;;;;;;;30.98;38.47;100663.39;106633;1251;61369;-88
2023/08/23 16:35:59;;;;;;;4.00;1.80;;;;;;;30.78;39.76;100661.51;106684;1251;61149;-88
2023/08/23 16:38:48;;;;;;;4.90;2.70;;;;;;;30.59;41.35;100662.34;106418;1251;66658;-88
2023/08/23 16:41:37;;;;;;;7.20;2.10;;;;;;;30.32;42.60;100668.25;106631;1256;61295;-87
2023/08/23 16:44:26;;;;;;;4.70;2.30;;;;;;;30.08;43.67;100667.63;106415;1256;65814;-87
2023/08/23 16:47:14;;;;;;;7.50;2.00;;;;;;;29.86;45.08;100666.63;106452;1255;61375;-87
2023/08/23 16:50:04;;;;;;;5.20;2.40;;;;;;;29.57;46.53;100669.80;106607;1257;61845;-88
2023/08/23 16:52:53;;;;;;;3.40;2.10;;;;;;;29.43;46.52;100667.41;106363;1253;65744;-88
2023/08/23 16:55:43;;;;;;;3.70;2.30;;;;;;;29.30;47.48;100663.48;106626;1251;61316;-88
2023/08/23 16:58:32;;;;;;;4.50;2.20;;;;;;;29.05;49.17;100661.85;106460;1251;65916;-88
2023/08/23 17:01:20;;;;;;;6.00;2.40;;;;;;;28.84;50.66;100666.48;106387;1254;61353;-87
2023/08/23 17:04:09;;;;;;;5.90;2.40;;;;;;;28.74;52.64;100669.11;106458;1253;61240;-87
2023/08/23 17:06:58;;;;;;;3.20;2.10;;;;;;;28.65;53.22;100673.34;106572;1254;65808;-87
2023/08/23 17:09:47;;;;;;;4.10;2.10;;;;;;;28.49;54.24;100675.70;106388;1253;61795;-87
2023/08/23 17:12:36;;;;;;;3.20;2.00;;;;;;;28.17;56.71;100676.04;106472;1257;62663;-88
2023/08/23 17:15:25;;;;;;;6.20;2.40;;;;;;;27.86;59.92;100682.21;106410;1257;61278;-87
2023/08/23 17:18:14;;;;;;;8.30;4.60;;;;;;;27.74;60.93;100681.16;106352;1253;61285;-87
2023/08/23 17:21:03;;;;;;;4.30;2.80;;;;;;;27.64;62.13;100682.45;106520;1256;67883;-86
2023/08/23 17:23:51;;;;;;;2.90;2.10;;;;;;;27.38;64.90;100687.14;106477;1253;61340;-87
2023/08/23 17:26:40;;;;;;;4.60;3.00;;;;;;;27.24;67.22;100690.70;106295;1253;64915;-87
2023/08/23 17:29:29;;;;;;;6.80;2.50;;;;;;;27.10;68.25;100688.97;106494;1257;61323;-87
2023/08/23 17:32:18;;;;;;;4.70;2.40;;;;;;;26.82;70.45;100694.77;106321;1253;61119;-87
2023/08/23 17:35:09;;;;;;;4.80;2.40;;;;;;;26.56;72.45;100694.77;106345;1256;65831;-87
2023/08/23 17:37:58;;;;;;;4.70;2.60;;;;;;;26.47;73.73;100694.59;106404;1258;61683;-87
2023/08/23 17:40:46;;;;;;;4.10;2.50;;;;;;;26.51;73.85;100698.41;106467;1253;65782;-87
2023/08/23 17:43:37;;;;;;;10.80;3.30;;;;;;;26.29;76.25;100702.52;106412;1254;61379;-87
2023/08/23 17:46:38;;;;;;;4.80;2.90;;;;;;;26.03;78.83;100703.40;106464;1254;61145;-87
2023/08/23 17:49:28;;;;;;;5.50;4.90;;;;;;;25.97;79.93;100707.70;106461;1253;64563;-87
2023/08/23 17:52:16;;;;;;;8.80;3.40;;;;;;;25.95;80.47;100707.09;106335;1257;61241;-87
2023/08/23 17:55:07;;;;;;;8.90;2.70;;;;;;;25.77;82.43;100707.86;106584;1253;66353;-87
2023/08/23 17:57:57;;;;;;;8.70;2.70;;;;;;;25.54;84.06;100707.43;106295;1254;61396;-86
2023/08/23 18:00:45;;;;;;;10.60;3.20;;;;;;;25.43;85.02;100710.13;106465;1253;59590;-86
2023/08/23 18:03:34;;;;;;;13.90;3.10;;;;;;;25.30;86.02;100715.50;106691;1256;75183;-87
2023/08/23 18:06:23;;;;;;;12.10;3.80;;;;;;;25.23;86.82;100719.23;106344;1257;67870;-87
2023/08/23 18:09:11;;;;;;;4.90;2.60;;;;;;;24.98;89.77;100724.55;106388;1253;72975;-87
2023/08/23 18:12:00;;;;;;;9.00;2.90;;;;;;;24.81;90.46;100730.23;106490;1254;61227;-87
2023/08/23 18:14:49;;;;;;;4.70;2.90;;;;;;;24.82;90.50;100729.45;106670;1253;62705;-87
2023/08/23 18:17:38;;;;;;;7.20;3.00;;;;;;;24.64;92.07;100732.93;106345;1257;75396;-87
2023/08/23 18:20:27;;;;;;;5.80;3.20;;;;;;;24.50;95.34;100730.88;106346;1253;70789;-86
2023/08/23 18:23:16;;;;;;;5.00;2.90;;;;;;;24.55;96.09;100736.80;106635;1253;73521;-86
2023/08/23 18:26:05;;;;;;;5.70;3.40;;;;;;;24.48;96.55;100739.14;106405;1254;61327;-86
2023/08/23 18:28:55;;;;;;;5.40;3.20;;;;;;;24.40;97.31;100739.59;106481;1254;61314;-86
2023/08/23 18:31:43;;;;;;;6.10;3.30;;;;;;;24.50;96.75;100740.61;106411;1253;74205;-86
2023/08/23 18:34:32;;;;;;;4.90;3.20;;;;;;;24.75;94.58;100741.43;106314;1254;71054;-86
2023/08/23 18:37:21;;;;;;;5.10;3.40;;;;;;;24.70;94.66;100741.34;106516;1254;74029;-86
2023/08/23 18:40:10;;;;;;;6.00;3.40;;;;;;;24.54;95.56;100742.45;106339;1253;62974;-87
2023/08/23 18:42:58;;;;;;;3.90;2.80;;;;;;;24.48;95.63;100746.96;106262;1253;61435;-87
2023/08/23 18:45:47;;;;;;;4.50;3.20;;;;;;;24.53;94.97;100751.13;106415;1254;76855;-87
2023/08/23 18:48:36;;;;;;;3.90;3.00;;;;;;;24.37;95.31;100750.63;106374;1253;71428;-88
2023/08/23 18:51:25;;;;;;;6.00;3.20;;;;;;;24.06;97.08;100751.13;106426;1253;74664;-86
2023/08/23 18:54:13;;;;;;;6.00;3.30;;;;;;;23.90;97.67;100748.29;106388;1254;61308;-90
2023/08/23 18:57:02;;;;;;;7.00;3.30;;;;;;;23.97;96.99;100745.89;106286;1253;62720;-86
2023/08/23 18:59:53;;;;;;;7.00;3.50;;;;;;;23.83;97.75;100748.37;106303;1254;76773;-85
2023/08/23 19:02:43;;;;;;;4.20;2.90;;;;;;;23.86;96.91;100747.39;106226;1256;70058;-85
2023/08/23 19:05:32;;;;;;;3.60;3.30;;;;;;;23.67;98.57;100749.55;106282;1256;73206;-88
2023/08/23 19:08:21;;;;;;;5.40;3.60;;;;;;;23.48;99.97;100747.71;106677;1254;61397;-87
2023/08/23 19:11:10;;;;;;;3.70;3.20;;;;;;;23.60;100.00;100747.44;106572;1251;61119;-87
2023/08/23 19:13:59;;;;;;;6.50;3.50;;;;;;;23.49;100.00;100744.96;106710;1251;74730;-88
2023/08/23 19:16:47;;;;;;;5.20;3.00;;;;;;;23.63;100.00;100747.30;106454;1256;68536;-87
2023/08/23 19:19:36;;;;;;;7.10;3.10;;;;;;;23.62;100.00;100752.21;106464;1251;74519;-88
2023/08/23 19:22:25;;;;;;;6.20;3.40;;;;;;;23.56;100.00;100749.98;106554;1254;61202;-88
2023/08/23 19:25:13;;;;;;;4.30;3.00;;;;;;;23.55;99.47;100753.95;106477;1251;61551;-88
2023/08/23 19:28:02;;;;;;;6.20;3.90;;;;;;;23.42;99.37;100754.56;106333;1256;77018;-86
2023/08/23 19:30:51;;;;;;;4.00;3.30;;;;;;;23.29;100.00;100756.40;106375;1251;68387;-88
2023/08/23 19:33:40;;;;;;;5.60;3.50;;;;;;;23.00;100.00;100759.58;106222;1257;73729;-86
2023/08/23 19:36:34;;;;;;;7.50;3.80;;;;;;;23.02;100.00;100760.69;106504;1251;61241;-86
2023/08/23 19:39:23;;;;;;;5.60;3.70;;;;;;;23.02;100.00;100762.84;106418;1252;61501;-90
2023/08/23 19:42:11;;;;;;;14.20;4.10;;;;;;;22.85;100.00;100765.13;106363;1251;73407;-90
2023/08/23 19:45:02;;;;;;;4.40;3.60;;;;;;;22.79;100.00;100769.56;106327;1257;69658;-89
2023/08/23 19:47:51;;;;;;;5.90;4.10;;;;;;;22.80;100.00;100764.34;106401;1251;72586;-85
2023/08/23 19:50:41;;;;;;;7.60;3.70;;;;;;;22.89;100.00;100764.84;106326;1256;61254;-86
2023/08/23 19:53:30;;;;;;;8.60;4.00;;;;;;;23.00;100.00;100764.85;106472;1251;62422;-89
2023/08/23 19:56:18;;;;;;;6.80;3.60;;;;;;;22.98;100.00;100763.34;106304;1253;75673;-87
2023/08/23 19:59:07;;;;;;;6.40;3.50;;;;;;;22.95;100.00;100765.19;106268;1256;71110;-89
2023/08/23 20:01:56;;;;;;;9.80;3.60;;;;;;;22.84;100.00;100764.36;106277;1251;72860;-89
2023/08/23 20:04:44;;;;;;;4.70;3.00;;;;;;;22.71;100.00;100766.58;106333;1254;62576;-90
2023/08/23 20:07:35;;;;;;;9.90;3.30;;;;;;;22.81;100.00;100763.81;106199;1256;61249;-89
2023/08/23 20:10:24;;;;;;;6.20;3.70;;;;;;;22.80;100.00;100768.55;106221;1253;76732;-89
2023/08/23 20:13:12;;;;;;;7.60;4.10;;;;;;;22.69;100.00;100765.63;106329;1253;69473;-89
2023/08/23 20:16:01;;;;;;;5.20;3.60;;;;;;;22.53;100.00;100762.14;106095;1256;73791;-86
2023/08/23 20:18:50;;;;;;;5.40;3.30;;;;;;;22.37;100.00;100767.54;106151;1256;61324;-88
2023/08/23 20:21:38;;;;;;;7.60;3.80;;;;;;;22.19;100.00;100773.75;106221;1257;61131;-86
2023/08/23 20:24:27;;;;;;;7.50;4.40;;;;;;;22.10;100.00;100776.06;106251;1257;75723;-89
2023/08/23 20:27:19;;;;;;;5.50;4.10;;;;;;;21.97;100.00;100775.58;106320;1254;70434;-86
